BAW801 BIKF-EGLL
Flight info
| Callsign | BAW801 |
|---|---|
| Flight time | N/A |
| Altitude | 35000 |
| Route | OSKUM3A OSKUM DCT RATSU/N0469F350 DCT BARKU DCT ORSUM DCT GOW DCT ELBUS DCT NAVSO DCT AKOMU DCT VAMEB DCT NUGRA |
| Aircraft | A320/M-SDE3FGHIRWY/LB1 |
Departure
| Time | 2026-05-08 00:55 |
|---|---|
| Airport | Keflavik International Airport (BIKF) |
Arrival
| Time | N/A |
|---|---|
| Airport | London Heathrow Airport (EGLL) |
| Time | Latitude | Longitude | Altitude | Speed | Heading |
|---|---|---|---|---|---|
| 2026-05-08 00:46 | 63.99425 | -22.62678 | 142 ft | 4 kts | 195° |
| 2026-05-08 00:47 | 63.99430 | -22.62675 | 142 ft | 0 kts | 204° |
| 2026-05-08 00:49 | 63.99421 | -22.62684 | 142 ft | 3 kts | 204° |
| 2026-05-08 00:49 | 63.99391 | -22.62715 | 142 ft | 6 kts | 204° |
| 2026-05-08 00:49 | 63.99340 | -22.62746 | 142 ft | 9 kts | 182° |
| 2026-05-08 00:50 | 63.99267 | -22.62732 | 142 ft | 12 kts | 157° |
| 2026-05-08 00:50 | 63.99185 | -22.62674 | 142 ft | 14 kts | 186° |
| 2026-05-08 00:50 | 63.99086 | -22.62738 | 141 ft | 16 kts | 197° |
| 2026-05-08 00:50 | 63.98968 | -22.62824 | 139 ft | 20 kts | 198° |
| 2026-05-08 00:51 | 63.98855 | -22.62986 | 137 ft | 20 kts | 252° |
| 2026-05-08 00:51 | 63.98848 | -22.63336 | 133 ft | 24 kts | 272° |
| 2026-05-08 00:51 | 63.98850 | -22.63446 | 130 ft | 0 kts | 271° |
| 2026-05-08 00:52 | 63.98851 | -22.63523 | 128 ft | 14 kts | 271° |
| 2026-05-08 00:52 | 63.98857 | -22.63899 | 125 ft | 30 kts | 274° |
| 2026-05-08 00:52 | 63.98854 | -22.64286 | 124 ft | 22 kts | 268° |
| 2026-05-08 00:53 | 63.98854 | -22.64672 | 120 ft | 26 kts | 270° |
| 2026-05-08 00:53 | 63.98854 | -22.65129 | 115 ft | 30 kts | 270° |
| 2026-05-08 00:53 | 63.98836 | -22.65436 | 115 ft | 17 kts | 225° |
| 2026-05-08 00:53 | 63.98719 | -22.65465 | 118 ft | 18 kts | 179° |
| 2026-05-08 00:54 | 63.98585 | -22.65466 | 113 ft | 21 kts | 180° |
| 2026-05-08 00:54 | 63.98503 | -22.65372 | 120 ft | 14 kts | 94° |
| 2026-05-08 00:54 | 63.98504 | -22.65072 | 120 ft | 38 kts | 89° |
| 2026-05-08 00:54 | 63.98506 | -22.63922 | 136 ft | 102 kts | 90° |
| 2026-05-08 00:55 | 63.98521 | -22.61958 | 157 ft | 146 kts | 88° |
| 2026-05-08 00:55 | 63.98552 | -22.59661 | 788 ft | 138 kts | 82° |
| 2026-05-08 00:55 | 63.98552 | -22.57440 | 1305 ft | 143 kts | 82° |
| 2026-05-08 00:55 | 63.98545 | -22.55005 | 1628 ft | 164 kts | 82° |
| 2026-05-08 00:56 | 63.98541 | -22.52231 | 1897 ft | 186 kts | 85° |
| 2026-05-08 00:56 | 63.98536 | -22.49150 | 2192 ft | 205 kts | 85° |
| 2026-05-08 00:56 | 63.98531 | -22.45704 | 2533 ft | 230 kts | 85° |
| 2026-05-08 00:56 | 63.98370 | -22.41937 | 3157 ft | 250 kts | 102° |
| 2026-05-08 00:57 | 63.97755 | -22.38154 | 4020 ft | 257 kts | 105° |
| 2026-05-08 00:57 | 63.97118 | -22.34304 | 4920 ft | 262 kts | 105° |
| 2026-05-08 00:57 | 63.96472 | -22.30380 | 5707 ft | 269 kts | 106° |
| 2026-05-08 00:57 | 63.95813 | -22.26373 | 5952 ft | 270 kts | 106° |
| 2026-05-08 00:58 | 63.95152 | -22.22367 | 5993 ft | 270 kts | 106° |
| 2026-05-08 00:58 | 63.94492 | -22.18372 | 6065 ft | 272 kts | 106° |
| 2026-05-08 00:58 | 63.93823 | -22.14312 | 6919 ft | 273 kts | 106° |
| 2026-05-08 00:58 | 63.93155 | -22.10246 | 7808 ft | 276 kts | 106° |
| 2026-05-08 00:59 | 63.92489 | -22.06180 | 8584 ft | 281 kts | 105° |
| 2026-05-08 00:59 | 63.91801 | -22.01983 | 9394 ft | 285 kts | 106° |
| 2026-05-08 00:59 | 63.91100 | -21.97732 | 10181 ft | 290 kts | 106° |
| 2026-05-08 00:59 | 63.90376 | -21.93364 | 10721 ft | 303 kts | 107° |
| 2026-05-08 01:00 | 63.89603 | -21.88687 | 10899 ft | 326 kts | 107° |
| 2026-05-08 01:00 | 63.88778 | -21.83696 | 11043 ft | 349 kts | 107° |
| 2026-05-08 01:00 | 63.87895 | -21.78366 | 11175 ft | 370 kts | 107° |
| 2026-05-08 01:00 | 63.86959 | -21.72750 | 11319 ft | 390 kts | 107° |
| 2026-05-08 01:01 | 63.85978 | -21.66933 | 11764 ft | 399 kts | 108° |
| 2026-05-08 01:01 | 63.84987 | -21.61102 | 12369 ft | 403 kts | 108° |
| 2026-05-08 01:01 | 63.84097 | -21.55059 | 12994 ft | 405 kts | 101° |
| 2026-05-08 01:01 | 63.83396 | -21.48849 | 13638 ft | 408 kts | 102° |
| 2026-05-08 01:02 | 63.82694 | -21.42589 | 14288 ft | 410 kts | 101° |
| 2026-05-08 01:02 | 63.81988 | -21.36305 | 14837 ft | 414 kts | 102° |
| 2026-05-08 01:02 | 63.81269 | -21.29966 | 15352 ft | 417 kts | 102° |
| 2026-05-08 01:02 | 63.80539 | -21.23556 | 15859 ft | 421 kts | 102° |
| 2026-05-08 01:03 | 63.79804 | -21.17124 | 16363 ft | 424 kts | 102° |
| 2026-05-08 01:03 | 63.79057 | -21.10633 | 16844 ft | 428 kts | 102° |
| 2026-05-08 01:03 | 63.78311 | -21.04168 | 17323 ft | 431 kts | 102° |
| 2026-05-08 01:03 | 63.77548 | -20.97574 | 17814 ft | 435 kts | 102° |
| 2026-05-08 01:04 | 63.76777 | -20.90926 | 18294 ft | 439 kts | 102° |
| 2026-05-08 01:04 | 63.75992 | -20.84223 | 18733 ft | 442 kts | 102° |
| 2026-05-08 01:04 | 63.75193 | -20.77452 | 19164 ft | 445 kts | 102° |
| 2026-05-08 01:04 | 63.74391 | -20.70681 | 19585 ft | 448 kts | 102° |
| 2026-05-08 01:05 | 63.73579 | -20.63859 | 20017 ft | 451 kts | 102° |
| 2026-05-08 01:05 | 63.72767 | -20.57078 | 20457 ft | 454 kts | 102° |
| 2026-05-08 01:05 | 63.71938 | -20.50183 | 20937 ft | 456 kts | 102° |
| 2026-05-08 01:05 | 63.70991 | -20.43320 | 21362 ft | 461 kts | 108° |
| 2026-05-08 01:06 | 63.69690 | -20.36678 | 21814 ft | 464 kts | 111° |
| 2026-05-08 01:06 | 63.68338 | -20.30065 | 22393 ft | 463 kts | 111° |
| 2026-05-08 01:06 | 63.66992 | -20.23476 | 22959 ft | 462 kts | 111° |
| 2026-05-08 01:06 | 63.65649 | -20.16897 | 23538 ft | 462 kts | 111° |
| 2026-05-08 01:07 | 63.64307 | -20.10328 | 24048 ft | 461 kts | 111° |
| 2026-05-08 01:07 | 63.62963 | -20.03775 | 24537 ft | 461 kts | 111° |
| 2026-05-08 01:07 | 63.61613 | -19.97230 | 25031 ft | 460 kts | 111° |
| 2026-05-08 01:07 | 63.60280 | -19.90807 | 25541 ft | 460 kts | 111° |
| 2026-05-08 01:08 | 63.58927 | -19.84311 | 26048 ft | 459 kts | 111° |
| 2026-05-08 01:08 | 63.57573 | -19.77816 | 26555 ft | 458 kts | 111° |
| 2026-05-08 01:08 | 63.56222 | -19.71350 | 27062 ft | 457 kts | 111° |
| 2026-05-08 01:08 | 63.54866 | -19.64884 | 27541 ft | 457 kts | 111° |
| 2026-05-08 01:09 | 63.53505 | -19.58433 | 28004 ft | 456 kts | 111° |
| 2026-05-08 01:09 | 63.52147 | -19.52006 | 28506 ft | 456 kts | 111° |
| 2026-05-08 01:09 | 63.50790 | -19.45586 | 28974 ft | 455 kts | 111° |
| 2026-05-08 01:09 | 63.49453 | -19.39269 | 29428 ft | 454 kts | 111° |
| 2026-05-08 01:10 | 63.48093 | -19.32870 | 29888 ft | 454 kts | 111° |
| 2026-05-08 01:10 | 63.46733 | -19.26502 | 30329 ft | 454 kts | 111° |
| 2026-05-08 01:10 | 63.45367 | -19.20137 | 30690 ft | 454 kts | 112° |
| 2026-05-08 01:10 | 63.44444 | -19.15844 | 30918 ft | 454 kts | 112° |
| 2026-05-08 01:11 | 63.43075 | -19.09490 | 31286 ft | 453 kts | 112° |
| 2026-05-08 01:11 | 63.41722 | -19.03245 | 31656 ft | 453 kts | 112° |
| 2026-05-08 01:11 | 63.40344 | -18.96900 | 32035 ft | 453 kts | 112° |
| 2026-05-08 01:11 | 63.38968 | -18.90565 | 32419 ft | 453 kts | 112° |
| 2026-05-08 01:12 | 63.37590 | -18.84231 | 32796 ft | 453 kts | 112° |
| 2026-05-08 01:12 | 63.36209 | -18.77915 | 33161 ft | 453 kts | 112° |
| 2026-05-08 01:12 | 63.34826 | -18.71606 | 33540 ft | 453 kts | 112° |
| 2026-05-08 01:12 | 63.33440 | -18.65295 | 33918 ft | 453 kts | 113° |
| 2026-05-08 01:13 | 63.32068 | -18.59076 | 34262 ft | 453 kts | 113° |
| 2026-05-08 01:13 | 63.30676 | -18.52791 | 34568 ft | 452 kts | 114° |
| 2026-05-08 01:13 | 63.29282 | -18.46519 | 34895 ft | 451 kts | 114° |
| 2026-05-08 01:13 | 63.27890 | -18.40273 | 35177 ft | 450 kts | 114° |
| 2026-05-08 01:14 | 63.26500 | -18.34049 | 35464 ft | 450 kts | 114° |
| 2026-05-08 01:14 | 63.25104 | -18.27826 | 35720 ft | 450 kts | 114° |
| 2026-05-08 01:14 | 63.23705 | -18.21603 | 35979 ft | 449 kts | 114° |
| 2026-05-08 01:14 | 63.22308 | -18.15396 | 36227 ft | 449 kts | 114° |
| 2026-05-08 01:15 | 63.20912 | -18.09202 | 36478 ft | 449 kts | 115° |
| 2026-05-08 01:15 | 63.19507 | -18.02981 | 36667 ft | 451 kts | 114° |
| 2026-05-08 01:15 | 63.18102 | -17.96775 | 36879 ft | 451 kts | 114° |
| 2026-05-08 01:15 | 63.16689 | -17.90555 | 37074 ft | 452 kts | 114° |
| 2026-05-08 01:16 | 63.15267 | -17.84336 | 37156 ft | 455 kts | 115° |
| 2026-05-08 01:16 | 63.12376 | -17.71781 | 37142 ft | 465 kts | 115° |
| 2026-05-08 01:17 | 63.09423 | -17.58984 | 37144 ft | 468 kts | 115° |
| 2026-05-08 01:17 | 63.06456 | -17.46184 | 37149 ft | 467 kts | 115° |
| 2026-05-08 01:18 | 63.03503 | -17.33544 | 37145 ft | 466 kts | 115° |
| 2026-05-08 01:18 | 63.00520 | -17.20848 | 37139 ft | 467 kts | 115° |
| 2026-05-08 01:19 | 62.97515 | -17.08122 | 37159 ft | 467 kts | 115° |
| 2026-05-08 01:19 | 62.94493 | -16.95433 | 37141 ft | 468 kts | 115° |
| 2026-05-08 01:20 | 62.90869 | -16.83638 | 37149 ft | 471 kts | 128° |
| 2026-05-08 01:20 | 62.86626 | -16.72650 | 37135 ft | 472 kts | 128° |
| 2026-05-08 01:21 | 62.82356 | -16.61699 | 37145 ft | 472 kts | 129° |
| 2026-05-08 01:21 | 62.78094 | -16.50793 | 37138 ft | 472 kts | 129° |
| 2026-05-08 01:22 | 62.73837 | -16.39962 | 37139 ft | 472 kts | 129° |
| 2026-05-08 01:22 | 62.69541 | -16.29089 | 37127 ft | 473 kts | 129° |
| 2026-05-08 01:23 | 62.65242 | -16.18239 | 37111 ft | 474 kts | 129° |
| 2026-05-08 01:23 | 62.60919 | -16.07394 | 37128 ft | 474 kts | 130° |
| 2026-05-08 01:24 | 62.56619 | -15.96649 | 37116 ft | 473 kts | 129° |
| 2026-05-08 01:24 | 62.52286 | -15.85878 | 37120 ft | 473 kts | 130° |
| 2026-05-08 01:25 | 62.47954 | -15.75161 | 37116 ft | 473 kts | 130° |
| 2026-05-08 01:25 | 62.43610 | -15.64484 | 37095 ft | 472 kts | 130° |
| 2026-05-08 01:26 | 62.39296 | -15.53890 | 37097 ft | 472 kts | 130° |
| 2026-05-08 01:26 | 62.34948 | -15.43264 | 37088 ft | 472 kts | 130° |
| 2026-05-08 01:27 | 62.30579 | -15.32667 | 37077 ft | 474 kts | 130° |
| 2026-05-08 01:27 | 62.26181 | -15.22085 | 37084 ft | 474 kts | 131° |
| 2026-05-08 01:28 | 62.21792 | -15.11544 | 37072 ft | 473 kts | 130° |
| 2026-05-08 01:28 | 62.17404 | -15.01029 | 37063 ft | 473 kts | 131° |
| 2026-05-08 01:29 | 62.13002 | -14.90546 | 37069 ft | 472 kts | 131° |
| 2026-05-08 01:29 | 62.08634 | -14.80192 | 37058 ft | 471 kts | 131° |
| 2026-05-08 01:30 | 62.04225 | -14.69808 | 37040 ft | 472 kts | 131° |
| 2026-05-08 01:30 | 61.99818 | -14.59444 | 37055 ft | 472 kts | 131° |
| 2026-05-08 01:31 | 61.95425 | -14.49166 | 37028 ft | 472 kts | 132° |
| 2026-05-08 01:31 | 61.90993 | -14.38853 | 37029 ft | 471 kts | 132° |
| 2026-05-08 01:32 | 61.86573 | -14.28601 | 37030 ft | 471 kts | 132° |
| 2026-05-08 01:32 | 61.82135 | -14.18379 | 37022 ft | 470 kts | 132° |
| 2026-05-08 01:33 | 61.77728 | -14.08277 | 36992 ft | 470 kts | 133° |
| 2026-05-08 01:33 | 61.73295 | -13.98143 | 37007 ft | 469 kts | 133° |
| 2026-05-08 01:34 | 61.68864 | -13.88069 | 36998 ft | 468 kts | 133° |
| 2026-05-08 01:34 | 61.64414 | -13.78016 | 36976 ft | 469 kts | 133° |
| 2026-05-08 01:35 | 61.59951 | -13.67972 | 36950 ft | 469 kts | 133° |
| 2026-05-08 01:35 | 61.55490 | -13.57962 | 36949 ft | 469 kts | 133° |
| 2026-05-08 01:36 | 61.51017 | -13.47979 | 36947 ft | 470 kts | 134° |
| 2026-05-08 01:36 | 61.46565 | -13.38078 | 36946 ft | 470 kts | 134° |
| 2026-05-08 01:37 | 61.42082 | -13.28128 | 36925 ft | 469 kts | 134° |
| 2026-05-08 01:37 | 61.37588 | -13.18242 | 36915 ft | 469 kts | 134° |
| 2026-05-08 01:38 | 61.33090 | -13.08378 | 36927 ft | 469 kts | 134° |
| 2026-05-08 01:38 | 61.28586 | -12.98516 | 36904 ft | 469 kts | 134° |
| 2026-05-08 01:39 | 61.24081 | -12.88725 | 36894 ft | 468 kts | 134° |
| 2026-05-08 01:39 | 61.19594 | -12.79028 | 36877 ft | 469 kts | 135° |
| 2026-05-08 01:40 | 61.15062 | -12.69268 | 36883 ft | 469 kts | 134° |
| 2026-05-08 01:40 | 61.10532 | -12.59551 | 36882 ft | 469 kts | 134° |
| 2026-05-08 01:41 | 61.05982 | -12.49834 | 36850 ft | 469 kts | 135° |
| 2026-05-08 01:41 | 61.01462 | -12.40234 | 36852 ft | 469 kts | 135° |
| 2026-05-08 01:42 | 60.96897 | -12.30577 | 36860 ft | 469 kts | 135° |
| 2026-05-08 01:42 | 60.92349 | -12.20965 | 36851 ft | 468 kts | 136° |
| 2026-05-08 01:43 | 60.87792 | -12.11378 | 36819 ft | 468 kts | 135° |
| 2026-05-08 01:43 | 60.83230 | -12.01838 | 36829 ft | 468 kts | 135° |
| 2026-05-08 01:44 | 60.78658 | -11.92339 | 36818 ft | 468 kts | 136° |
| 2026-05-08 01:44 | 60.74111 | -11.82935 | 36824 ft | 467 kts | 135° |
| 2026-05-08 01:45 | 60.69518 | -11.73468 | 36782 ft | 468 kts | 136° |
| 2026-05-08 01:45 | 60.64930 | -11.64024 | 36784 ft | 468 kts | 136° |
| 2026-05-08 01:46 | 60.60368 | -11.54692 | 36787 ft | 468 kts | 137° |
| 2026-05-08 01:46 | 60.55770 | -11.45337 | 36794 ft | 467 kts | 136° |
| 2026-05-08 01:47 | 60.51164 | -11.36006 | 36746 ft | 467 kts | 137° |
| 2026-05-08 01:47 | 60.46558 | -11.26701 | 36751 ft | 467 kts | 136° |
| 2026-05-08 01:48 | 60.39625 | -11.12785 | 36745 ft | 467 kts | 139° |
| 2026-05-08 01:48 | 60.35032 | -11.03608 | 36731 ft | 467 kts | 137° |
| 2026-05-08 01:49 | 60.30402 | -10.94396 | 36736 ft | 467 kts | 137° |
| 2026-05-08 01:49 | 60.25761 | -10.85225 | 36725 ft | 467 kts | 137° |
| 2026-05-08 01:50 | 60.21116 | -10.76064 | 36719 ft | 467 kts | 139° |
| 2026-05-08 01:50 | 60.16505 | -10.66977 | 36697 ft | 466 kts | 140° |
| 2026-05-08 01:51 | 60.11859 | -10.57874 | 36708 ft | 466 kts | 138° |
| 2026-05-08 01:51 | 60.07205 | -10.48814 | 36708 ft | 465 kts | 138° |
| 2026-05-08 01:52 | 60.02560 | -10.39801 | 36698 ft | 465 kts | 140° |
| 2026-05-08 01:52 | 59.97929 | -10.30852 | 36682 ft | 465 kts | 140° |
| 2026-05-08 01:53 | 59.93272 | -10.21878 | 36692 ft | 465 kts | 138° |
| 2026-05-08 01:53 | 59.88603 | -10.12926 | 36685 ft | 465 kts | 139° |
| 2026-05-08 01:54 | 59.83963 | -10.04067 | 36675 ft | 465 kts | 139° |
| 2026-05-08 01:54 | 59.79282 | -9.95187 | 36664 ft | 465 kts | 140° |
| 2026-05-08 01:55 | 59.74601 | -9.86328 | 36658 ft | 465 kts | 139° |
| 2026-05-08 01:55 | 59.69917 | -9.77503 | 36679 ft | 464 kts | 139° |
| 2026-05-08 01:56 | 59.65256 | -9.68749 | 36689 ft | 464 kts | 139° |
| 2026-05-08 01:56 | 59.60567 | -9.59966 | 36690 ft | 463 kts | 139° |
| 2026-05-08 01:57 | 59.56659 | -9.52696 | 36696 ft | 463 kts | 140° |
| 2026-05-08 01:57 | 59.51961 | -9.43969 | 36681 ft | 463 kts | 140° |
| 2026-05-08 01:58 | 59.47285 | -9.35321 | 36690 ft | 463 kts | 140° |
| 2026-05-08 01:58 | 59.42575 | -9.26635 | 36692 ft | 463 kts | 140° |
| 2026-05-08 01:59 | 59.37865 | -9.18010 | 36702 ft | 463 kts | 140° |
| 2026-05-08 01:59 | 59.33151 | -9.09395 | 36703 ft | 463 kts | 140° |
| 2026-05-08 02:00 | 59.28429 | -9.00794 | 36677 ft | 463 kts | 141° |
| 2026-05-08 02:00 | 59.23743 | -8.92281 | 36705 ft | 462 kts | 141° |
| 2026-05-08 02:01 | 59.19024 | -8.83753 | 36714 ft | 462 kts | 141° |
| 2026-05-08 02:01 | 59.14295 | -8.75279 | 36721 ft | 461 kts | 141° |
| 2026-05-08 02:02 | 59.09566 | -8.66811 | 36718 ft | 461 kts | 141° |
| 2026-05-08 02:02 | 59.04871 | -8.58428 | 36728 ft | 461 kts | 141° |
| 2026-05-08 02:03 | 59.00139 | -8.50018 | 36712 ft | 461 kts | 141° |
| 2026-05-08 02:03 | 58.95397 | -8.41633 | 36727 ft | 461 kts | 141° |
| 2026-05-08 02:04 | 58.90656 | -8.33270 | 36725 ft | 461 kts | 141° |
| 2026-05-08 02:04 | 58.85947 | -8.24976 | 36741 ft | 461 kts | 141° |
| 2026-05-08 02:05 | 58.81196 | -8.16666 | 36740 ft | 460 kts | 142° |
| 2026-05-08 02:05 | 58.76441 | -8.08381 | 36730 ft | 460 kts | 142° |
| 2026-05-08 02:06 | 58.71685 | -8.00131 | 36740 ft | 459 kts | 142° |
| 2026-05-08 02:06 | 58.66962 | -7.91965 | 36745 ft | 459 kts | 142° |
| 2026-05-08 02:07 | 58.62208 | -7.83771 | 36748 ft | 459 kts | 142° |
| 2026-05-08 02:07 | 58.57442 | -7.75587 | 36760 ft | 459 kts | 142° |
| 2026-05-08 02:08 | 58.52679 | -7.67431 | 36761 ft | 459 kts | 142° |
| 2026-05-08 02:08 | 58.47905 | -7.59295 | 36761 ft | 459 kts | 142° |
| 2026-05-08 02:09 | 58.43163 | -7.51236 | 36769 ft | 459 kts | 142° |
| 2026-05-08 02:09 | 58.38375 | -7.43150 | 36763 ft | 459 kts | 143° |
| 2026-05-08 02:10 | 58.33601 | -7.35118 | 36790 ft | 458 kts | 143° |
| 2026-05-08 02:10 | 58.28821 | -7.27111 | 36793 ft | 457 kts | 143° |
| 2026-05-08 02:11 | 58.24045 | -7.19127 | 36785 ft | 457 kts | 143° |
| 2026-05-08 02:11 | 58.19292 | -7.11194 | 36795 ft | 457 kts | 143° |
| 2026-05-08 02:12 | 58.14510 | -7.03250 | 36811 ft | 457 kts | 143° |
| 2026-05-08 02:12 | 58.09727 | -6.95329 | 36813 ft | 457 kts | 143° |
| 2026-05-08 02:13 | 58.04928 | -6.87425 | 36831 ft | 457 kts | 143° |
| 2026-05-08 02:13 | 58.00127 | -6.79551 | 36807 ft | 457 kts | 143° |
| 2026-05-08 02:14 | 57.95353 | -6.71749 | 36829 ft | 456 kts | 143° |
| 2026-05-08 02:14 | 57.90541 | -6.63924 | 36827 ft | 456 kts | 143° |
| 2026-05-08 02:15 | 57.85738 | -6.56120 | 36857 ft | 456 kts | 143° |
| 2026-05-08 02:15 | 57.80933 | -6.48330 | 36857 ft | 456 kts | 144° |
| 2026-05-08 02:16 | 57.76119 | -6.40583 | 36836 ft | 456 kts | 144° |
| 2026-05-08 02:16 | 57.71321 | -6.32886 | 36857 ft | 456 kts | 144° |
| 2026-05-08 02:17 | 57.66497 | -6.25165 | 36863 ft | 456 kts | 144° |
| 2026-05-08 02:17 | 57.61666 | -6.17453 | 36881 ft | 457 kts | 144° |
| 2026-05-08 02:18 | 57.56835 | -6.09764 | 36884 ft | 456 kts | 144° |
| 2026-05-08 02:18 | 57.52013 | -6.02139 | 36889 ft | 456 kts | 144° |
| 2026-05-08 02:19 | 57.47171 | -5.94506 | 36889 ft | 455 kts | 144° |
| 2026-05-08 02:19 | 57.42363 | -5.86961 | 36911 ft | 454 kts | 144° |
| 2026-05-08 02:20 | 57.37535 | -5.79405 | 36916 ft | 454 kts | 144° |
| 2026-05-08 02:20 | 57.32723 | -5.71901 | 36929 ft | 453 kts | 144° |
| 2026-05-08 02:21 | 57.27890 | -5.64390 | 36927 ft | 453 kts | 144° |
| 2026-05-08 02:21 | 57.23046 | -5.56890 | 36917 ft | 453 kts | 144° |
| 2026-05-08 02:22 | 57.18231 | -5.49453 | 36925 ft | 453 kts | 144° |
| 2026-05-08 02:22 | 57.13376 | -5.41982 | 36941 ft | 454 kts | 144° |
| 2026-05-08 02:23 | 57.08521 | -5.34543 | 36944 ft | 454 kts | 144° |
| 2026-05-08 02:23 | 57.03341 | -5.28128 | 36944 ft | 445 kts | 159° |
| 2026-05-08 02:24 | 56.97674 | -5.23898 | 36920 ft | 442 kts | 162° |
| 2026-05-08 02:24 | 56.91958 | -5.19669 | 36932 ft | 442 kts | 162° |
| 2026-05-08 02:25 | 56.86240 | -5.15452 | 36956 ft | 443 kts | 162° |
| 2026-05-08 02:25 | 56.80553 | -5.11272 | 36953 ft | 443 kts | 162° |
| 2026-05-08 02:26 | 56.74817 | -5.07079 | 36956 ft | 443 kts | 162° |
| 2026-05-08 02:26 | 56.69084 | -5.02913 | 36943 ft | 443 kts | 162° |
| 2026-05-08 02:27 | 56.63346 | -4.98738 | 36953 ft | 444 kts | 162° |
| 2026-05-08 02:27 | 56.57602 | -4.94571 | 36962 ft | 444 kts | 162° |
| 2026-05-08 02:28 | 56.51893 | -4.90465 | 36962 ft | 444 kts | 162° |
| 2026-05-08 02:28 | 56.46140 | -4.86322 | 36948 ft | 444 kts | 162° |
| 2026-05-08 02:29 | 56.40383 | -4.82190 | 36958 ft | 445 kts | 162° |
| 2026-05-08 02:29 | 56.34658 | -4.78107 | 36961 ft | 445 kts | 162° |
| 2026-05-08 02:30 | 56.28891 | -4.74010 | 36975 ft | 445 kts | 162° |
| 2026-05-08 02:30 | 56.23103 | -4.69895 | 36979 ft | 446 kts | 162° |
| 2026-05-08 02:31 | 56.17338 | -4.65797 | 36972 ft | 446 kts | 162° |
| 2026-05-08 02:31 | 56.11593 | -4.61732 | 36976 ft | 446 kts | 162° |
| 2026-05-08 02:32 | 56.05813 | -4.57674 | 36983 ft | 446 kts | 162° |
| 2026-05-08 02:32 | 56.00022 | -4.53628 | 36986 ft | 447 kts | 162° |
| 2026-05-08 02:33 | 55.94233 | -4.49586 | 36971 ft | 447 kts | 162° |
| 2026-05-08 02:33 | 55.88486 | -4.45576 | 36977 ft | 446 kts | 162° |
| 2026-05-08 02:34 | 55.82923 | -4.40497 | 36981 ft | 451 kts | 155° |
| 2026-05-08 02:34 | 55.77446 | -4.35062 | 36987 ft | 451 kts | 155° |
| 2026-05-08 02:35 | 55.71955 | -4.29627 | 36989 ft | 451 kts | 155° |
| 2026-05-08 02:35 | 55.66506 | -4.24259 | 36976 ft | 451 kts | 155° |
| 2026-05-08 02:36 | 55.61005 | -4.18857 | 36983 ft | 451 kts | 155° |
| 2026-05-08 02:36 | 55.55507 | -4.13482 | 36992 ft | 451 kts | 155° |
| 2026-05-08 02:37 | 55.50010 | -4.08134 | 36991 ft | 451 kts | 155° |
| 2026-05-08 02:37 | 55.44514 | -4.02792 | 36969 ft | 451 kts | 155° |
| 2026-05-08 02:38 | 55.39010 | -3.97471 | 36986 ft | 452 kts | 155° |
| 2026-05-08 02:38 | 55.33529 | -3.92172 | 36988 ft | 452 kts | 155° |
| 2026-05-08 02:39 | 55.28011 | -3.86855 | 36992 ft | 452 kts | 155° |
| 2026-05-08 02:39 | 55.22476 | -3.81548 | 36982 ft | 453 kts | 155° |
| 2026-05-08 02:40 | 55.16912 | -3.76540 | 36981 ft | 452 kts | 158° |
| 2026-05-08 02:40 | 55.11243 | -3.71769 | 36996 ft | 452 kts | 158° |
| 2026-05-08 02:41 | 55.05565 | -3.67010 | 37010 ft | 453 kts | 158° |
| 2026-05-08 02:41 | 54.99892 | -3.62180 | 37022 ft | 453 kts | 158° |
| 2026-05-08 02:42 | 54.94231 | -3.57328 | 37008 ft | 453 kts | 158° |
| 2026-05-08 02:42 | 54.88600 | -3.52538 | 37018 ft | 453 kts | 158° |
| 2026-05-08 02:43 | 54.82919 | -3.47743 | 37019 ft | 453 kts | 158° |
| 2026-05-08 02:43 | 54.77237 | -3.42955 | 37028 ft | 454 kts | 158° |
| 2026-05-08 02:44 | 54.71555 | -3.38172 | 37035 ft | 454 kts | 158° |
| 2026-05-08 02:44 | 54.65873 | -3.33410 | 37032 ft | 454 kts | 158° |
| 2026-05-08 02:45 | 54.60183 | -3.28659 | 37040 ft | 454 kts | 158° |
| 2026-05-08 02:45 | 54.54529 | -3.23954 | 37043 ft | 454 kts | 158° |
| 2026-05-08 02:46 | 54.48829 | -3.19225 | 37040 ft | 454 kts | 158° |
| 2026-05-08 02:46 | 54.43140 | -3.14510 | 37031 ft | 453 kts | 158° |
| 2026-05-08 02:47 | 54.37450 | -3.09813 | 37051 ft | 454 kts | 158° |
| 2026-05-08 02:47 | 54.31748 | -3.05123 | 37051 ft | 454 kts | 158° |
| 2026-05-08 02:48 | 54.27017 | -3.01241 | 37048 ft | 454 kts | 158° |
| 2026-05-08 02:48 | 54.20388 | -2.95826 | 37038 ft | 454 kts | 158° |
| 2026-05-08 02:49 | 54.14670 | -2.91228 | 37047 ft | 454 kts | 159° |
| 2026-05-08 02:49 | 54.09851 | -2.87672 | 37044 ft | 453 kts | 161° |
| 2026-05-08 02:50 | 54.04017 | -2.83562 | 37055 ft | 453 kts | 161° |
| 2026-05-08 02:50 | 53.98137 | -2.79768 | 37047 ft | 451 kts | 166° |
| 2026-05-08 02:51 | 53.92181 | -2.76603 | 37044 ft | 451 kts | 166° |
| 2026-05-08 02:51 | 53.86173 | -2.73425 | 37050 ft | 451 kts | 166° |
| 2026-05-08 02:52 | 53.80163 | -2.70242 | 37050 ft | 452 kts | 166° |
| 2026-05-08 02:52 | 53.74189 | -2.67102 | 37060 ft | 452 kts | 166° |